Montrose, CO (81401)

3:19 PM MDT on July 29, 2016 (GMT -0600)
Moonlight Mesa | | Change Station

Elev 6155 ft 38.40 °N, 107.86 °W | Updated 8 seconds ago

Clear
Clear
92.7 °F
Feels Like 88 °F
N
6.7
Wind Variable Wind from NNE
Gusts 7.4 mph

Today
High -- | Low -- °F
--% Chance of Precip.
Yesterday
High -- | Low -- °F
Precip. -- in
Pressure 29.83 in
Visibility 9.0 miles
Clouds Clear
Heat Index 88 °F
Dew Point 33 °F
Humidity 12%
Rainfall in
Snow Depth Not available.
6:11 AM 8:23 PM
Waning Crescent, 19% visible
METAR KMTJ 292053Z AUTO 35008G17KT 290V020 9SM CLR 34/01 A3012 RMK AO2 SLP102 T03440011 58019
Pressure 29.83 in
Visibility 9.0 miles
Clouds Clear
Heat Index 88 °F
Dew Point 33 °F
Humidity 12%
Rainfall in
Snow Depth Not available.
6:11 AM 8:23 PM
Waning Crescent, 19% visible
METAR KMTJ 292053Z AUTO 35008G17KT 290V020 9SM CLR 34/01 A3012 RMK AO2 SLP102 T03440011 58019

10-Day Weather Forecast

Almanac

Astronomy

Jul. 29, 2016 Rise Set
Actual Time
Civil Twilight
Nautical Twilight
Astronomical Twilight
Moon
Length of Visible Light
Length of Day
Tomorrow will be .
, % of the Moon is Illuminated

Today's Extremes

State Highs State Lows

Community

WunderPhotos

Upload Photos

1,928,421 photos uploaded!

WunderBlog® & News

Nearby

Air Quality

  Air Quality AQ Index Pollutant
Not available.

Snow Depth

Station Depth Elevation

Earthquake Activity

City Distance Mag. Time & Date
Minimum magnitude displayed is 2.5.

Coastal Water Temperatures

Place Temperature

Stations

Nearby Weather Stations

Station Location Temp. Windchill Dew Point Humidity Wind Precip. Elev Updated Type
                   

Watches & Warnings

There are currently no watches in effect.